Time;durP1;ratioP1;P1;durP2;ratioP2;P2;SDS_P1;SDS_P2;PMS_P1;PMS_P2;Temp;Humidity;BMP_temperature;BMP_pressure;BME280_temperature;BME280_humidity;BME280_pressure;Samples;Min_cycle;Max_cycle;Signal;HPM_P1;HPM_P2
2022/04/15 00:01:36;;;;;;;5.82;2.33;;;13.80;92.00;;;;;;5014928;28;20069;-65
2022/04/15 00:04:03;;;;;;;10.38;1.85;;;13.80;92.00;;;;;;5012863;28;20042;-65
2022/04/15 00:06:28;;;;;;;3.85;2.17;;;13.80;92.00;;;;;;5033998;28;20030;-65
2022/04/15 00:08:57;;;;;;;5.82;2.03;;;13.80;91.80;;;;;;5032666;28;20036;-65
2022/04/15 00:11:22;;;;;;;6.63;2.25;;;13.80;91.80;;;;;;5022059;28;20045;-65
2022/04/15 00:13:48;;;;;;;7.70;2.33;;;13.80;91.60;;;;;;5021002;28;20049;-65
2022/04/15 00:16:15;;;;;;;5.47;1.98;;;13.80;91.50;;;;;;5032148;28;20121;-65
2022/04/15 00:18:41;;;;;;;3.38;2.03;;;13.80;91.40;;;;;;5024812;28;20091;-65
2022/04/15 00:21:07;;;;;;;4.30;2.13;;;13.80;91.40;;;;;;5024685;28;20041;-65
2022/04/15 00:23:34;;;;;;;7.85;2.38;;;13.80;91.40;;;;;;5032110;28;20124;-65
2022/04/15 00:26:00;;;;;;;4.90;2.40;;;13.80;91.30;;;;;;5019640;28;20148;-65
2022/04/15 00:28:26;;;;;;;8.25;2.80;;;13.80;91.30;;;;;;5026483;28;20314;-66
2022/04/15 00:30:53;;;;;;;5.05;2.50;;;13.70;91.30;;;;;;5032046;28;20109;-67
2022/04/15 00:33:21;;;;;;;6.43;3.00;;;13.80;91.30;;;;;;5032749;28;20057;-66
2022/04/15 00:35:50;;;;;;;7.85;2.55;;;13.80;91.40;;;;;;5032604;28;20551;-67
2022/04/15 00:38:16;;;;;;;6.05;2.47;;;13.70;91.40;;;;;;5025173;28;20034;-66
2022/04/15 00:40:42;;;;;;;6.05;2.33;;;13.70;91.50;;;;;;5022927;28;20525;-66
2022/04/15 00:43:08;;;;;;;4.78;2.28;;;13.70;91.60;;;;;;5027791;28;20025;-66
2022/04/15 00:45:33;;;;;;;7.07;1.98;;;13.70;91.70;;;;;;5031607;28;20141;-66
2022/04/15 00:48:01;;;;;;;5.93;2.30;;;13.70;91.70;;;;;;5032730;28;20072;-67
2022/04/15 00:50:32;;;;;;;6.18;2.35;;;13.70;91.70;;;;;;5032153;28;20025;-66
2022/04/15 00:53:00;;;;;;;8.95;3.05;;;13.70;91.70;;;;;;5015603;28;20052;-66
2022/04/15 00:55:27;;;;;;;6.45;2.28;;;13.70;91.70;;;;;;5019285;28;20473;-66
2022/04/15 00:58:00;;;;;;;8.63;2.67;;;13.60;91.70;;;;;;5018941;28;20065;-67
2022/04/15 01:00:28;;;;;;;8.05;2.40;;;13.60;91.60;;;;;;5031867;28;20508;-67
2022/04/15 01:02:57;;;;;;;10.32;2.13;;;13.60;91.70;;;;;;5017807;28;20065;-67
2022/04/15 01:05:24;;;;;;;8.63;2.50;;;13.60;91.70;;;;;;5031597;28;20037;-67
2022/04/15 01:07:56;;;;;;;12.00;2.88;;;13.60;91.80;;;;;;5032118;28;20033;-67
2022/04/15 01:10:26;;;;;;;8.50;2.78;;;13.60;91.90;;;;;;5020717;28;20034;-67
2022/04/15 01:12:54;;;;;;;13.10;3.35;;;13.70;92.10;;;;;;5016137;28;20041;-66
2022/04/15 01:15:22;;;;;;;9.88;3.35;;;13.60;92.10;;;;;;5020314;28;20560;-66
2022/04/15 01:17:48;;;;;;;10.48;3.35;;;13.70;92.10;;;;;;5030751;28;20456;-66
2022/04/15 01:20:14;;;;;;;6.55;3.45;;;13.60;92.10;;;;;;5031059;28;20045;-66
2022/04/15 01:22:44;;;;;;;17.02;3.83;;;13.60;92.10;;;;;;5017149;28;20131;-66
2022/04/15 01:25:12;;;;;;;10.18;3.10;;;13.60;92.10;;;;;;5029551;28;20079;-66
2022/04/15 01:27:40;;;;;;;15.02;3.90;;;13.60;92.10;;;;;;5019670;28;20108;-66
2022/04/15 01:30:17;;;;;;;13.13;3.80;;;13.60;92.10;;;;;;5029054;28;20043;-66
2022/04/15 01:32:43;;;;;;;13.63;3.78;;;13.60;92.00;;;;;;5016586;28;20022;-66
2022/04/15 01:35:10;;;;;;;9.55;3.30;;;13.60;92.00;;;;;;5015166;28;20070;-66
2022/04/15 01:37:37;;;;;;;12.18;3.15;;;13.60;92.00;;;;;;5021617;28;20075;-66
2022/04/15 01:40:05;;;;;;;13.27;3.53;;;13.60;92.00;;;;;;5027996;28;20038;-66
2022/04/15 01:42:34;;;;;;;7.80;3.00;;;13.60;91.90;;;;;;5015656;28;20026;-66
2022/04/15 01:45:00;;;;;;;9.35;3.80;;;13.60;92.00;;;;;;5011634;28;20117;-66
2022/04/15 01:47:25;;;;;;;9.77;3.70;;;13.60;91.90;;;;;;5011561;28;20108;-66
2022/04/15 01:49:51;;;;;;;13.20;3.25;;;13.60;92.00;;;;;;5010100;28;20030;-66
2022/04/15 01:52:17;;;;;;;13.32;3.42;;;13.60;92.00;;;;;;5022474;28;20037;-66
2022/04/15 01:54:43;;;;;;;8.77;3.40;;;13.60;92.10;;;;;;5025482;28;20053;-66
2022/04/15 01:57:08;;;;;;;15.75;4.03;;;13.60;92.10;;;;;;5023339;28;20057;-66
2022/04/15 01:59:34;;;;;;;10.40;4.78;;;13.50;92.30;;;;;;5024654;28;20044;-66
2022/04/15 02:02:00;;;;;;;10.68;4.28;;;13.50;92.30;;;;;;5010792;28;20069;-66
2022/04/15 02:04:27;;;;;;;10.50;4.38;;;13.50;92.30;;;;;;5024336;28;20064;-66
2022/04/15 02:06:53;;;;;;;9.38;4.80;;;13.50;92.30;;;;;;5011670;28;20129;-66
2022/04/15 02:09:20;;;;;;;9.32;4.85;;;13.50;92.40;;;;;;5023784;28;20037;-66
2022/04/15 02:11:45;;;;;;;8.68;5.28;;;13.50;92.40;;;;;;5011636;28;20057;-66
2022/04/15 02:14:14;;;;;;;13.95;5.45;;;13.40;92.40;;;;;;5027261;28;20897;-66
2022/04/15 02:16:41;;;;;;;11.35;5.22;;;13.40;92.50;;;;;;5030389;28;20036;-66
2022/04/15 02:19:07;;;;;;;12.05;5.28;;;13.30;92.50;;;;;;5029916;28;20127;-66
2022/04/15 02:21:33;;;;;;;14.07;5.38;;;13.30;92.50;;;;;;5031175;28;20080;-67
2022/04/15 02:23:59;;;;;;;10.93;6.18;;;13.20;92.50;;;;;;5016635;28;20469;-66
2022/04/15 02:26:24;;;;;;;11.38;6.53;;;13.20;92.60;;;;;;5026839;28;20025;-66
2022/04/15 02:28:50;;;;;;;13.95;6.60;;;13.20;92.70;;;;;;5026214;28;20033;-66
2022/04/15 02:31:16;;;;;;;16.05;6.38;;;13.10;92.70;;;;;;5030507;28;20115;-66
2022/04/15 02:33:42;;;;;;;12.30;5.40;;;13.00;92.80;;;;;;5027965;28;20033;-66
2022/04/15 02:36:10;;;;;;;12.10;5.05;;;13.00;92.90;;;;;;5015701;28;20101;-66
2022/04/15 02:38:36;;;;;;;8.15;4.43;;;12.90;92.90;;;;;;5019652;28;20457;-66
2022/04/15 02:41:04;;;;;;;11.40;4.35;;;12.90;92.90;;;;;;5017453;28;20034;-66
2022/04/15 02:43:35;;;;;;;5.28;3.28;;;12.80;92.90;;;;;;5030708;28;20071;-66
2022/04/15 02:46:05;;;;;;;4.03;2.83;;;12.80;93.00;;;;;;5030012;28;20464;-68
2022/04/15 02:48:31;;;;;;;3.58;2.08;;;12.90;93.20;;;;;;5024027;28;20026;-69
2022/04/15 02:50:58;;;;;;;3.65;2.22;;;12.90;93.30;;;;;;5010742;28;20048;-66
2022/04/15 02:53:27;;;;;;;3.03;1.98;;;12.80;93.20;;;;;;5030558;28;20045;-66
2022/04/15 02:55:53;;;;;;;6.32;2.58;;;12.80;93.20;;;;;;5017582;28;20089;-66
2022/04/15 02:58:19;;;;;;;3.25;2.20;;;12.80;93.20;;;;;;5029906;28;20079;-66
2022/04/15 03:00:46;;;;;;;4.80;3.20;;;12.80;93.30;;;;;;5023557;28;20029;-67
2022/04/15 03:03:12;;;;;;;4.80;2.55;;;12.70;93.20;;;;;;5014568;28;20197;-66
2022/04/15 03:05:38;;;;;;;5.53;2.78;;;12.70;93.10;;;;;;5014392;28;20097;-66
2022/04/15 03:08:04;;;;;;;3.40;1.92;;;12.70;93.00;;;;;;5014387;28;20053;-66
2022/04/15 03:10:30;;;;;;;4.40;2.30;;;12.70;93.10;;;;;;5014697;28;20069;-66
2022/04/15 03:12:56;;;;;;;1.77;1.65;;;12.70;93.10;;;;;;5026934;28;20122;-66
2022/04/15 03:15:21;;;;;;;4.53;2.60;;;12.70;93.20;;;;;;5027696;28;20503;-67
2022/04/15 03:17:47;;;;;;;5.47;3.10;;;12.70;93.00;;;;;;5033181;28;20388;-66
2022/04/15 03:20:13;;;;;;;5.50;3.20;;;12.70;92.80;;;;;;5032578;28;20040;-66
2022/04/15 03:22:41;;;;;;;5.05;2.67;;;12.70;92.70;;;;;;5033189;28;20665;-67
2022/04/15 03:25:09;;;;;;;4.45;2.80;;;12.70;92.70;;;;;;5032915;28;20045;-66
2022/04/15 03:27:35;;;;;;;3.45;2.30;;;12.70;92.80;;;;;;5032299;28;20049;-70
2022/04/15 03:30:01;;;;;;;6.93;3.83;;;12.70;92.90;;;;;;5032654;28;20111;-67
2022/04/15 03:32:27;;;;;;;7.43;2.63;;;12.70;92.50;;;;;;5032935;28;20080;-68
2022/04/15 03:34:59;;;;;;;3.33;1.73;;;12.70;92.50;;;;;;5031716;28;20513;-67
2022/04/15 03:37:25;;;;;;;2.28;1.70;;;12.60;92.50;;;;;;5033919;28;20104;-66
2022/04/15 03:39:52;;;;;;;8.13;1.83;;;12.60;92.70;;;;;;5018646;28;20465;-67
2022/04/15 03:42:20;;;;;;;6.85;1.98;;;12.60;92.60;;;;;;5013488;28;20048;-68
2022/04/15 03:44:46;;;;;;;4.07;1.80;;;12.50;92.70;;;;;;5013624;28;20464;-68
2022/04/15 03:47:11;;;;;;;4.47;2.38;;;12.50;92.70;;;;;;5013615;28;20038;-67
2022/04/15 03:49:37;;;;;;;4.95;2.17;;;12.50;92.70;;;;;;5016788;28;20029;-67
2022/04/15 03:52:03;;;;;;;8.57;2.15;;;12.50;92.60;;;;;;5023845;28;20038;-67
2022/04/15 03:54:29;;;;;;;3.42;1.88;;;12.50;92.30;;;;;;5029433;28;20519;-74
2022/04/15 03:57:55;;;;;;;3.80;1.80;;;12.40;92.10;;;;;;5027744;27;3409601;-67
2022/04/15 04:00:23;;;;;;;4.82;2.40;;;12.40;92.20;;;;;;5128591;27;20043;-67
2022/04/15 04:02:52;;;;;;;3.60;2.33;;;12.40;92.30;;;;;;5128721;27;20027;-67
2022/04/15 04:05:18;;;;;;;6.20;2.60;;;12.30;92.10;;;;;;5117264;27;20093;-67
2022/04/15 04:07:45;;;;;;;6.70;2.10;;;12.30;92.20;;;;;;5121851;28;20429;-67
2022/04/15 04:10:29;;;;;;;6.32;2.28;;;12.30;92.40;;;;;;5110169;27;20028;-67
2022/04/15 04:13:00;;;;;;;4.95;2.25;;;12.30;92.40;;;;;;5110610;28;20023;-67
2022/04/15 04:15:26;;;;;;;3.13;1.90;;;12.20;92.40;;;;;;5109437;28;20019;-66
2022/04/15 04:17:52;;;;;;;4.07;2.03;;;12.30;92.40;;;;;;5116071;28;20446;-66
2022/04/15 04:20:17;;;;;;;4.78;2.58;;;12.20;92.40;;;;;;5110338;28;20507;-66
2022/04/15 04:22:43;;;;;;;6.30;2.47;;;12.30;92.40;;;;;;5110327;28;20048;-66
2022/04/15 04:25:09;;;;;;;4.70;2.42;;;12.30;92.40;;;;;;5107477;28;20035;-66
2022/04/15 04:27:36;;;;;;;3.80;2.45;;;12.20;92.50;;;;;;5115310;28;20028;-66
2022/04/15 04:30:03;;;;;;;4.28;1.90;;;12.20;92.40;;;;;;5109887;27;20020;-66
2022/04/15 04:32:32;;;;;;;3.78;2.15;;;12.20;92.40;;;;;;5115936;28;20482;-66
2022/04/15 04:34:58;;;;;;;2.60;1.73;;;12.20;92.50;;;;;;5112214;28;20058;-66
2022/04/15 04:37:24;;;;;;;4.85;1.95;;;12.20;92.50;;;;;;5109798;28;20070;-66
2022/04/15 04:39:52;;;;;;;8.73;2.72;;;12.20;92.60;;;;;;5109584;28;20443;-66
2022/04/15 04:42:19;;;;;;;5.18;2.80;;;12.20;92.60;;;;;;5110189;28;20032;-66
2022/04/15 04:44:45;;;;;;;7.40;2.78;;;12.20;92.50;;;;;;5111749;27;20080;-66
2022/04/15 04:47:11;;;;;;;5.10;3.00;;;12.20;92.40;;;;;;5115712;28;20035;-66
2022/04/15 04:49:37;;;;;;;5.22;2.95;;;12.20;92.40;;;;;;5128257;27;20034;-66
2022/04/15 04:52:04;;;;;;;6.82;2.65;;;12.20;92.50;;;;;;5127912;28;20042;-66
2022/04/15 04:54:30;;;;;;;6.45;3.13;;;12.20;92.40;;;;;;5114979;27;20036;-66
2022/04/15 04:56:56;;;;;;;4.30;2.70;;;12.20;92.40;;;;;;5128305;27;20116;-66
2022/04/15 04:59:32;;;;;;;8.05;3.63;;;12.20;92.40;;;;;;5127463;28;20471;-66
2022/04/15 05:01:58;;;;;;;7.70;3.17;;;12.30;92.40;;;;;;5128336;27;20043;-66
2022/04/15 05:04:24;;;;;;;7.82;3.47;;;12.20;92.40;;;;;;5127776;27;20027;-66
2022/04/15 05:06:50;;;;;;;8.98;3.25;;;12.20;92.40;;;;;;5128418;28;20028;-66
2022/04/15 05:09:16;;;;;;;10.25;3.20;;;12.20;92.40;;;;;;5113895;27;20071;-68
2022/04/15 05:11:42;;;;;;;7.97;4.25;;;12.20;92.40;;;;;;5112799;28;20118;-67
2022/04/15 05:14:08;;;;;;;10.48;4.47;;;12.30;92.50;;;;;;5113999;28;20031;-67
2022/04/15 05:16:36;;;;;;;9.90;4.10;;;12.30;92.40;;;;;;5114309;28;20047;-67
2022/04/15 05:19:02;;;;;;;8.85;4.60;;;12.30;92.40;;;;;;5108202;28;20470;-67
2022/04/15 05:21:28;;;;;;;12.25;4.07;;;12.30;92.40;;;;;;5106362;28;20041;-67
2022/04/15 05:23:53;;;;;;;9.52;4.75;;;12.30;92.40;;;;;;5114153;28;20123;-68
2022/04/15 05:26:20;;;;;;;11.18;5.80;;;12.30;92.40;;;;;;5113849;28;20157;-67
2022/04/15 05:28:48;;;;;;;11.65;5.35;;;12.30;92.40;;;;;;5107923;28;20379;-67
2022/04/15 05:31:14;;;;;;;10.60;4.82;;;12.40;92.40;;;;;;5093862;28;20036;-67
2022/04/15 05:33:40;;;;;;;16.45;7.75;;;12.40;92.70;;;;;;5109630;28;20020;-68
2022/04/15 05:36:05;;;;;;;15.57;8.00;;;12.40;92.60;;;;;;5114070;28;20450;-67
2022/04/15 05:38:31;;;;;;;19.17;8.05;;;12.30;92.80;;;;;;5114220;28;20035;-67
2022/04/15 05:40:57;;;;;;;19.58;9.00;;;12.30;92.90;;;;;;5095057;28;20409;-68
2022/04/15 05:43:22;;;;;;;14.30;7.95;;;12.20;92.70;;;;;;5093556;28;20575;-68
2022/04/15 05:45:48;;;;;;;17.15;7.97;;;12.10;92.50;;;;;;5111807;28;20024;-65
2022/04/15 05:48:14;;;;;;;16.92;7.68;;;12.10;92.50;;;;;;5113409;28;20040;-65
2022/04/15 05:50:40;;;;;;;23.10;9.15;;;12.00;92.50;;;;;;5100074;27;20042;-65
2022/04/15 05:53:12;;;;;;;17.40;7.05;;;12.00;92.60;;;;;;5113843;28;20036;-65
2022/04/15 05:55:37;;;;;;;19.67;8.35;;;12.00;92.70;;;;;;5112689;28;20451;-65
2022/04/15 05:58:03;;;;;;;18.55;8.23;;;12.00;92.70;;;;;;5112958;28;20054;-67
2022/04/15 06:00:29;;;;;;;19.23;8.05;;;11.90;92.60;;;;;;5113875;28;20043;-68
2022/04/15 06:02:55;;;;;;;17.05;7.40;;;12.00;92.60;;;;;;5111621;28;20054;-68
2022/04/15 06:05:23;;;;;;;15.82;6.88;;;12.00;92.60;;;;;;5113511;28;20024;-67
2022/04/15 06:07:48;;;;;;;15.60;6.70;;;12.00;92.70;;;;;;5112657;28;20024;-68
2022/04/15 06:10:14;;;;;;;17.60;7.22;;;11.90;92.60;;;;;;5105450;28;20422;-68
2022/04/15 06:12:57;;;;;;;17.65;7.88;;;12.00;92.80;;;;;;5107700;28;20024;-68
2022/04/15 06:15:30;;;;;;;15.35;6.47;;;12.00;92.80;;;;;;5112834;28;20047;-68
2022/04/15 06:17:57;;;;;;;16.10;6.45;;;11.90;92.90;;;;;;5107546;28;20043;-68
2022/04/15 06:20:24;;;;;;;14.77;6.53;;;11.90;93.30;;;;;;5104550;28;20027;-68
2022/04/15 06:22:49;;;;;;;14.23;6.28;;;12.00;93.10;;;;;;5112185;28;20043;-67
2022/04/15 06:25:15;;;;;;;14.52;5.85;;;11.90;93.00;;;;;;5112912;28;20036;-68
2022/04/15 06:27:41;;;;;;;17.25;6.10;;;11.90;93.00;;;;;;5099110;28;20091;-67
2022/04/15 06:30:08;;;;;;;12.13;6.55;;;11.90;93.00;;;;;;5112503;28;20141;-68
2022/04/15 06:32:36;;;;;;;19.42;6.20;;;11.90;92.90;;;;;;5094906;28;20060;-68
2022/04/15 06:35:05;;;;;;;15.35;6.40;;;11.90;92.90;;;;;;5112654;28;20478;-68
2022/04/15 06:37:31;;;;;;;10.60;5.72;;;11.90;92.80;;;;;;5110019;28;20036;-67
2022/04/15 06:39:57;;;;;;;9.63;4.72;;;11.90;92.80;;;;;;5092228;28;20032;-67
2022/04/15 06:42:24;;;;;;;13.88;5.38;;;11.90;92.80;;;;;;5107016;28;20035;-67
2022/04/15 06:44:51;;;;;;;11.23;4.55;;;11.90;93.10;;;;;;5110592;28;20023;-67
2022/04/15 06:47:17;;;;;;;12.40;5.30;;;11.90;92.90;;;;;;5111720;27;20047;-67
2022/04/15 06:49:43;;;;;;;14.75;4.68;;;11.90;92.90;;;;;;5106283;28;20028;-67
2022/04/15 06:52:09;;;;;;;11.80;5.05;;;11.90;93.10;;;;;;5094100;28;20225;-67
2022/04/15 06:54:35;;;;;;;8.95;4.18;;;11.90;93.40;;;;;;5101329;28;20019;-67
2022/04/15 06:57:03;;;;;;;8.65;4.60;;;11.80;93.50;;;;;;5095734;28;20467;-67
2022/04/15 06:59:28;;;;;;;16.23;5.15;;;11.80;93.40;;;;;;5097451;28;20026;-67
2022/04/15 07:01:55;;;;;;;9.13;4.10;;;11.90;93.60;;;;;;5101321;28;20036;-68
2022/04/15 07:04:22;;;;;;;10.07;4.60;;;11.80;93.50;;;;;;5092566;28;20040;-68
2022/04/15 07:06:48;;;;;;;12.43;4.70;;;11.80;93.40;;;;;;5097147;28;20386;-68
2022/04/15 07:09:14;;;;;;;12.02;4.63;;;11.80;93.40;;;;;;5093633;28;20074;-66
2022/04/15 07:11:39;;;;;;;6.97;4.25;;;11.80;93.50;;;;;;5096999;28;20036;-67
2022/04/15 07:14:05;;;;;;;11.75;4.40;;;11.90;93.50;;;;;;5098183;28;20043;-66
2022/04/15 07:16:31;;;;;;;11.93;3.85;;;11.90;93.40;;;;;;5094181;28;20429;-67
2022/04/15 07:18:57;;;;;;;13.75;4.22;;;11.80;93.40;;;;;;5094333;28;20019;-67
2022/04/15 07:21:24;;;;;;;8.15;3.20;;;11.80;93.40;;;;;;5096894;28;20130;-67
2022/04/15 07:23:50;;;;;;;9.88;4.05;;;11.80;93.30;;;;;;5098237;28;20040;-67
2022/04/15 07:26:16;;;;;;;8.77;3.53;;;11.80;93.20;;;;;;5093249;28;20036;-66
2022/04/15 07:28:41;;;;;;;10.55;2.90;;;11.90;93.40;;;;;;5093651;28;20016;-66
2022/04/15 07:31:07;;;;;;;10.80;3.50;;;11.80;93.60;;;;;;5096818;28;20394;-67
2022/04/15 07:33:33;;;;;;;11.80;4.10;;;11.80;93.70;;;;;;5094199;28;20089;-66
2022/04/15 07:35:58;;;;;;;8.00;3.50;;;11.80;94.00;;;;;;5095275;28;20044;-67
2022/04/15 07:38:24;;;;;;;10.20;4.25;;;11.80;94.10;;;;;;5100594;28;20044;-68
2022/04/15 07:40:50;;;;;;;9.85;4.00;;;11.80;94.10;;;;;;5094733;28;20027;-68
2022/04/15 07:43:16;;;;;;;11.93;4.65;;;11.80;94.10;;;;;;5096129;28;20024;-67
2022/04/15 07:45:41;;;;;;;9.38;4.18;;;11.80;94.00;;;;;;5093236;28;20031;-67
2022/04/15 07:48:07;;;;;;;11.55;4.57;;;11.90;94.00;;;;;;5096846;28;20035;-66
2022/04/15 07:50:33;;;;;;;12.40;4.38;;;11.90;94.00;;;;;;5100033;28;20035;-66
2022/04/15 07:52:59;;;;;;;11.68;3.78;;;11.90;93.50;;;;;;5097405;28;20085;-66
2022/04/15 07:55:26;;;;;;;9.23;4.00;;;11.90;93.10;;;;;;5092998;28;20066;-67
2022/04/15 07:57:52;;;;;;;13.20;3.78;;;11.90;93.10;;;;;;5095471;28;20040;-68
2022/04/15 08:00:19;;;;;;;9.00;3.88;;;12.00;93.00;;;;;;5095272;28;20471;-68
2022/04/15 08:02:44;;;;;;;13.80;4.03;;;12.00;92.90;;;;;;5095093;28;20085;-68
2022/04/15 08:05:10;;;;;;;9.55;4.45;;;12.00;92.90;;;;;;5095025;28;20032;-67
2022/04/15 08:07:35;;;;;;;11.93;4.60;;;12.00;92.80;;;;;;5094227;28;20035;-68
2022/04/15 08:10:03;;;;;;;9.38;3.75;;;12.10;92.80;;;;;;5100229;28;20169;-67
2022/04/15 08:12:28;;;;;;;11.48;4.03;;;12.10;93.00;;;;;;5098867;28;20027;-66
2022/04/15 08:14:55;;;;;;;8.60;3.35;;;12.10;93.00;;;;;;5095961;28;20029;-67
2022/04/15 08:17:21;;;;;;;13.75;4.85;;;12.10;93.10;;;;;;5099653;28;20035;-67
2022/04/15 08:19:47;;;;;;;8.98;4.28;;;12.20;93.00;;;;;;5095356;28;20039;-68
2022/04/15 08:22:12;;;;;;;11.73;4.50;;;12.20;93.10;;;;;;5097899;28;20035;-68
2022/04/15 08:24:43;;;;;;;10.68;3.88;;;12.20;93.10;;;;;;5094128;28;20518;-69
2022/04/15 08:27:11;;;;;;;10.75;4.38;;;12.20;92.90;;;;;;5099385;28;20058;-68
2022/04/15 08:29:39;;;;;;;11.77;4.90;;;12.30;93.10;;;;;;5098887;28;20038;-68
2022/04/15 08:32:08;;;;;;;7.47;3.63;;;12.30;93.00;;;;;;5091078;28;20024;-69
2022/04/15 08:34:36;;;;;;;8.43;4.60;;;12.30;93.20;;;;;;5098235;28;20048;-68
2022/04/15 08:37:01;;;;;;;7.22;3.67;;;12.40;92.80;;;;;;5094764;28;20039;-68
2022/04/15 08:39:27;;;;;;;7.32;4.20;;;12.40;93.00;;;;;;5095411;28;20089;-68
2022/04/15 08:41:53;;;;;;;10.80;4.35;;;12.40;93.00;;;;;;5107658;28;20057;-66
2022/04/15 08:44:21;;;;;;;10.98;4.40;;;12.50;93.10;;;;;;5113388;28;20035;-67
2022/04/15 08:46:48;;;;;;;8.00;4.07;;;12.50;93.00;;;;;;5109306;28;20267;-69
2022/04/15 08:49:16;;;;;;;13.40;4.90;;;12.50;93.00;;;;;;5101621;28;20032;-69
2022/04/15 08:51:42;;;;;;;6.18;3.22;;;12.50;92.80;;;;;;5101202;28;20085;-65
2022/04/15 08:54:09;;;;;;;7.38;4.53;;;12.50;93.00;;;;;;5114275;28;20032;-67
2022/04/15 08:56:34;;;;;;;8.27;4.47;;;12.50;93.00;;;;;;5113740;28;20063;-67
2022/04/15 08:59:00;;;;;;;9.32;4.38;;;12.60;93.10;;;;;;5114442;28;20449;-67
2022/04/15 09:01:26;;;;;;;9.65;4.28;;;12.50;93.00;;;;;;5109802;28;20020;-67
2022/04/15 09:03:52;;;;;;;11.48;5.05;;;12.60;93.30;;;;;;5104308;28;20501;-68
2022/04/15 09:06:18;;;;;;;11.50;4.28;;;12.60;93.40;;;;;;5101023;28;20031;-67
2022/04/15 09:09:02;;;;;;;7.72;3.85;;;12.60;93.40;;;;;;5114695;28;20039;-67
2022/04/15 09:11:33;;;;;;;9.27;4.15;;;12.70;93.70;;;;;;5099673;28;20470;-67
2022/04/15 09:14:02;;;;;;;13.07;5.47;;;12.70;93.80;;;;;;5112429;28;20070;-68
2022/04/15 09:16:30;;;;;;;8.75;4.47;;;12.70;93.40;;;;;;5093726;28;20042;-67
2022/04/15 09:18:56;;;;;;;11.43;5.20;;;12.70;93.20;;;;;;5092858;28;20030;-67
2022/04/15 09:21:24;;;;;;;7.72;4.05;;;12.70;93.00;;;;;;5103379;28;20118;-67
2022/04/15 09:23:54;;;;;;;7.47;3.88;;;12.70;93.20;;;;;;5110638;28;20040;-67
2022/04/15 09:26:21;;;;;;;10.88;4.13;;;12.70;93.00;;;;;;5102828;28;20127;-67
2022/04/15 09:28:47;;;;;;;5.63;3.72;;;12.80;93.10;;;;;;5113980;28;20044;-67
2022/04/15 09:31:15;;;;;;;8.30;3.75;;;12.80;93.50;;;;;;5114232;28;20038;-67
2022/04/15 09:34:00;;;;;;;14.90;5.28;;;12.80;93.80;;;;;;5106819;28;20080;-67
2022/04/15 09:36:31;;;;;;;14.02;4.85;;;12.80;93.60;;;;;;5098252;28;20047;-67
2022/04/15 09:39:04;;;;;;;11.60;4.93;;;12.80;93.30;;;;;;5100682;28;20359;-67
2022/04/15 09:41:31;;;;;;;7.07;4.03;;;12.80;93.20;;;;;;5113970;28;20039;-67
2022/04/15 09:43:59;;;;;;;13.02;4.13;;;12.90;93.50;;;;;;5113962;28;20471;-67
2022/04/15 09:46:36;;;;;;;7.70;3.83;;;12.90;93.40;;;;;;5112943;28;20019;-67
2022/04/15 09:49:07;;;;;;;10.55;4.13;;;12.90;93.80;;;;;;5113670;28;20590;-67
2022/04/15 09:51:40;;;;;;;8.90;3.80;;;12.90;93.40;;;;;;5100359;28;20047;-67
2022/04/15 09:54:07;;;;;;;6.53;3.08;;;12.90;92.80;;;;;;5099167;28;20534;-67
2022/04/15 09:56:36;;;;;;;9.07;3.72;;;12.90;92.80;;;;;;5104648;27;20135;-67
2022/04/15 09:59:08;;;;;;;6.13;3.30;;;13.00;92.80;;;;;;5095726;28;20470;-67
2022/04/15 10:01:39;;;;;;;7.83;3.90;;;13.00;93.20;;;;;;5113160;28;20028;-67
2022/04/15 10:04:05;;;;;;;5.82;3.03;;;13.00;93.40;;;;;;5113214;28;20063;-67
2022/04/15 10:06:31;;;;;;;4.95;2.92;;;13.00;93.90;;;;;;5101490;28;20097;-67
2022/04/15 10:09:02;;;;;;;5.43;3.40;;;13.00;93.40;;;;;;5105494;28;20360;-67
2022/04/15 10:11:30;;;;;;;5.60;2.92;;;13.00;92.80;;;;;;5106064;28;20092;-67
2022/04/15 10:13:56;;;;;;;5.13;2.75;;;13.00;92.50;;;;;;5111626;28;20028;-68
2022/04/15 10:16:22;;;;;;;6.88;3.28;;;13.10;93.10;;;;;;5113059;28;20046;-67
2022/04/15 10:18:50;;;;;;;10.50;3.63;;;13.10;93.50;;;;;;5112845;28;20370;-67
2022/04/15 10:21:16;;;;;;;7.50;3.90;;;13.10;93.80;;;;;;5112544;28;20475;-67
2022/04/15 10:23:42;;;;;;;13.15;4.30;;;13.10;94.00;;;;;;5099472;28;20020;-67
2022/04/15 10:26:09;;;;;;;10.10;3.60;;;13.10;94.00;;;;;;5113468;28;20032;-67
2022/04/15 10:28:42;;;;;;;5.10;3.65;;;13.10;94.00;;;;;;5112392;27;20020;-67
2022/04/15 10:31:11;;;;;;;;;;;13.10;94.00;;;;;;5099768;28;20071;-67
2022/04/15 10:33:39;;;;;;;6.65;3.72;;;13.10;94.60;;;;;;5112668;28;20367;-67
2022/04/15 10:36:11;;;;;;;5.47;3.38;;;13.10;93.90;;;;;;5112146;28;20046;-67
2022/04/15 10:38:37;;;;;;;5.32;2.92;;;13.10;93.00;;;;;;5112818;28;20035;-67
2022/04/15 10:41:16;;;;;;;5.53;3.35;;;13.10;92.00;;;;;;5094054;28;20077;-67
2022/04/15 10:43:59;;;;;;;6.65;3.53;;;13.10;92.80;;;;;;5091476;28;20437;-67
2022/04/15 10:46:35;;;;;;;7.55;3.45;;;13.20;93.10;;;;;;5092591;28;20413;-67
2022/04/15 10:49:02;;;;;;;6.88;3.58;;;13.20;93.40;;;;;;5097074;28;20027;-67
2022/04/15 10:51:33;;;;;;;5.15;3.33;;;13.20;93.80;;;;;;5112927;28;20027;-67
2022/04/15 10:54:29;;;;;;;6.78;3.38;;;13.20;93.70;;;;;;5099053;28;20044;-67
2022/04/15 10:57:04;;;;;;;9.30;3.33;;;13.20;93.80;;;;;;5111450;28;20126;-67
2022/04/15 11:02:17;;;;;;;10.73;3.50;;;13.30;92.20;;;;;;5100747;28;20057;-67
2022/04/15 11:04:49;;;;;;;10.10;3.63;;;13.30;91.90;;;;;;5097211;28;20114;-67
2022/04/15 11:07:26;;;;;;;7.82;3.25;;;13.30;92.20;;;;;;5112147;28;20451;-67
2022/04/15 11:09:53;;;;;;;8.90;3.72;;;13.30;92.10;;;;;;5107033;28;20039;-67
2022/04/15 11:12:35;;;;;;;9.98;3.70;;;13.40;91.80;;;;;;5091393;28;20020;-67
2022/04/15 11:15:01;;;;;;;5.53;2.72;;;13.30;91.50;;;;;;5098779;28;20085;-67
2022/04/15 11:17:38;;;;;;;7.97;3.45;;;13.40;92.10;;;;;;5109680;28;20128;-67
2022/04/15 11:20:07;;;;;;;4.82;2.72;;;13.40;91.60;;;;;;5101532;28;20035;-67
2022/04/15 11:22:36;;;;;;;7.95;3.55;;;13.40;91.60;;;;;;5107747;28;20024;-67
2022/04/15 11:25:02;;;;;;;6.72;3.30;;;13.50;91.50;;;;;;5090851;28;20032;-67
2022/04/15 11:27:29;;;;;;;7.00;3.45;;;13.50;91.80;;;;;;5096451;28;20028;-67
2022/04/15 11:29:56;;;;;;;9.57;3.35;;;13.50;92.60;;;;;;5111796;28;20483;-67
2022/04/15 11:32:22;;;;;;;10.13;3.40;;;13.50;92.70;;;;;;5097332;28;20051;-67
2022/04/15 11:34:54;;;;;;;8.73;3.35;;;13.50;92.80;;;;;;5098037;28;20063;-67
2022/04/15 11:37:20;;;;;;;8.45;3.50;;;13.50;92.30;;;;;;5098385;28;20048;-67
2022/04/15 11:39:47;;;;;;;6.90;3.28;;;13.50;92.40;;;;;;5110626;28;20039;-67
2022/04/15 11:42:15;;;;;;;7.85;3.55;;;13.50;91.90;;;;;;5111663;28;20035;-67
2022/04/15 11:44:42;;;;;;;8.40;3.38;;;13.50;91.70;;;;;;5111476;28;20019;-67
2022/04/15 11:47:19;;;;;;;5.70;3.30;;;13.50;91.70;;;;;;5097084;28;20077;-67
2022/04/15 11:49:51;;;;;;;9.13;3.17;;;13.60;91.70;;;;;;5111565;28;20050;-67
2022/04/15 11:52:27;;;;;;;9.75;3.60;;;13.60;92.00;;;;;;5111235;28;20028;-67
2022/04/15 11:54:53;;;;;;;6.60;3.80;;;13.60;92.20;;;;;;5097940;28;20064;-67
2022/04/15 11:57:19;;;;;;;10.80;3.80;;;13.50;91.80;;;;;;5103995;28;20054;-67
2022/04/15 11:59:46;;;;;;;9.15;3.88;;;13.60;91.70;;;;;;5104795;28;20030;-67
2022/04/15 12:02:14;;;;;;;7.28;3.58;;;13.60;91.50;;;;;;5111582;28;20035;-67
2022/04/15 12:04:58;;;;;;;8.88;4.20;;;13.70;91.70;;;;;;5110979;28;20055;-67
2022/04/15 12:07:25;;;;;;;8.80;4.00;;;13.60;91.00;;;;;;5099620;28;20040;-67
2022/04/15 12:09:52;;;;;;;9.32;3.38;;;13.70;90.90;;;;;;5095880;28;20039;-67
2022/04/15 12:12:20;;;;;;;7.10;2.90;;;13.60;91.30;;;;;;5099216;28;20521;-67
2022/04/15 12:14:53;;;;;;;7.35;3.83;;;13.60;90.90;;;;;;5109550;28;20038;-67
2022/04/15 12:17:20;;;;;;;7.20;3.53;;;13.60;90.70;;;;;;5110958;28;20043;-67
2022/04/15 12:19:47;;;;;;;10.10;3.60;;;13.60;90.80;;;;;;5102618;28;20043;-67
2022/04/15 12:22:14;;;;;;;7.90;3.28;;;13.60;91.10;;;;;;5100135;28;20383;-67
2022/04/15 12:24:39;;;;;;;10.85;3.92;;;13.70;91.50;;;;;;5095242;28;20036;-67
2022/04/15 12:27:14;;;;;;;5.53;3.40;;;13.70;91.40;;;;;;5109827;28;20062;-67
2022/04/15 12:29:48;;;;;;;9.40;3.53;;;13.70;91.50;;;;;;5114708;28;20035;-67
2022/04/15 12:32:34;;;;;;;9.63;4.38;;;13.70;91.60;;;;;;5115002;28;20494;-67
2022/04/15 12:35:00;;;;;;;5.60;3.55;;;13.70;91.50;;;;;;5114481;28;20027;-67
2022/04/15 12:37:43;;;;;;;8.23;2.90;;;13.60;91.20;;;;;;5114973;28;20036;-67
2022/04/15 12:40:14;;;;;;;8.40;3.85;;;13.70;91.20;;;;;;5114639;28;20053;-67
2022/04/15 12:42:44;;;;;;;9.75;4.15;;;13.70;91.40;;;;;;5114223;28;20097;-67
2022/04/15 12:45:12;;;;;;;8.65;3.80;;;13.70;91.20;;;;;;5100981;28;20422;-67
2022/04/15 12:47:39;;;;;;;10.65;4.38;;;13.70;91.30;;;;;;5114898;28;20416;-67
2022/04/15 12:50:25;;;;;;;11.23;4.20;;;13.70;91.30;;;;;;5114219;28;20055;-67